KPQI/PQI METAR and TAF weather

Enter ICAO airport designator
Station Type Date Time Source
KPQI METAR 2021/09/28 16:16 UTC NOAA

KPQI 281616Z AUTO 00000KT 10SM SCT029 OVC055 13/07 A2982 RMK AO2


Station Type Date Time Source
KPQI Decoded METAR 2021/09/28 16:16 UTC NOAA

Presque Isle, ME, United States (KPQI) 46-41N 068-03W 146M
Sep 28, 2021 - 12:16 PM EDT / 2021.09.28 1616 UTC
Wind: Calm:0
Visibility: 10 mile(s):0
Sky conditions: overcast
Temperature: 55 F (13 C)
Dew Point: 44 F (7 C)
Relative Humidity: 66%
Pressure (altimeter): 29.82 in. Hg (1009 hPa)
ob: KPQI 281616Z AUTO 00000KT 10SM SCT029 OVC055 13/07 A2982 RMK AO2
cycle: 16

Station Type Date Time Source
KPQI TAF 2021/09/28 12:30 UTC NOAA

TAF KPQI 281126Z 2812/2912 27004KT P6SM SCT003
TEMPO 2812/2813 1/2SM FG BKN003
FM281500 30006KT P6SM BKN050
FM282100 34005KT P6SM SCT045

Example: see airport list